메인 페이지
METAR-TAF:

METAR-TAF

공항 :

헬싱키 반타 국제공항

헬싱키, 핀란드

위도: 60-19N, 경도: 024-58E, 고도: 51m

현재 날씨관측

예보는 23분 전, 09:20시(UTC)에 발표되었습니다.
남동13kt
온도 3°C
습도 81%
기압 1033 hPa
시정 10km 이상
고도 700ft 상공 구름 보통
고도 1300ft 상공 구름 많음

METAR: EFHK 210920Z 14013KT 9999 SCT007 BKN013 03/M00 Q1033 BECMG BKN016

시각: 11:43 (09:43 UTC)

예보

예보는 1 시간 18분 전, 08:25시(UTC)에 발표되었습니다.
예보 대상 시간: 21일 09시부터 22일 09시까지 (UTC)
동남동12kt
시정 10km 이상
고도 600ft 상공 구름 많음
전환 중
21일 09시부터 21일 시까지 (UTC)
고도 1500ft 상공 구름 많음

TAF: EFHK 210825Z 2109/2209 12012KT 9999 BKN006 BECMG 2109/21 BKN015

4,000개 이상의 공항 관측 자료 및 예보 (METAR 및 TAF 보고).

지도상에서 검색 가능한 기상관측소가 노란 점과 빨간 점으로 표시되어 있습니다.

기상관측소 명을 보려면 표시 위로 마우스를 이동하세요.

날씨 관측과 예보를 보려면 클릭하세요.

지도 변경 : 확대하려면 엑스 표시가 있는 녹색 버튼, 축소하려면 빼기 표시가 있는 녹색 버튼, 다음 페이지의 지도를 보려면 녹색 화살표를 클릭하세요.


METAR-TAF: